sensor_id;sensor_type;location;lat;lon;timestamp;temperature;humidity
35363;DHT22;21463;47.480;8.214;2023-07-13T00:01:06;21.70;75.90
35363;DHT22;21463;47.480;8.214;2023-07-13T00:02:11;21.80;75.90
35363;DHT22;21463;47.480;8.214;2023-07-13T00:03:19;21.70;75.90
35363;DHT22;21463;47.480;8.214;2023-07-13T00:04:34;21.70;75.90
35363;DHT22;21463;47.480;8.214;2023-07-13T00:05:44;21.70;75.90
35363;DHT22;21463;47.480;8.214;2023-07-13T00:07:11;21.70;75.90
35363;DHT22;21463;47.480;8.214;2023-07-13T00:08:19;21.70;75.90
35363;DHT22;21463;47.480;8.214;2023-07-13T00:09:34;21.80;76.00
35363;DHT22;21463;47.480;8.214;2023-07-13T00:10:42;21.80;76.00
35363;DHT22;21463;47.480;8.214;2023-07-13T00:11:55;21.70;75.90
35363;DHT22;21463;47.480;8.214;2023-07-13T00:13:11;21.70;75.90
35363;DHT22;21463;47.480;8.214;2023-07-13T00:14:19;21.80;76.00
35363;DHT22;21463;47.480;8.214;2023-07-13T00:15:23;21.70;76.00
35363;DHT22;21463;47.480;8.214;2023-07-13T00:16:34;21.70;75.90
35363;DHT22;21463;47.480;8.214;2023-07-13T00:17:39;21.80;76.00
35363;DHT22;21463;47.480;8.214;2023-07-13T00:18:51;21.70;76.00
35363;DHT22;21463;47.480;8.214;2023-07-13T00:19:57;21.70;76.00
35363;DHT22;21463;47.480;8.214;2023-07-13T00:21:05;21.70;76.00
35363;DHT22;21463;47.480;8.214;2023-07-13T00:22:11;21.80;76.00
35363;DHT22;21463;47.480;8.214;2023-07-13T00:23:19;21.70;76.00
35363;DHT22;21463;47.480;8.214;2023-07-13T00:24:24;21.70;76.00
35363;DHT22;21463;47.480;8.214;2023-07-13T00:25:46;21.70;76.00
35363;DHT22;21463;47.480;8.214;2023-07-13T00:27:09;21.70;76.00
35363;DHT22;21463;47.480;8.214;2023-07-13T00:28:15;21.70;76.00
35363;DHT22;21463;47.480;8.214;2023-07-13T00:29:19;21.70;76.00
35363;DHT22;21463;47.480;8.214;2023-07-13T00:30:25;21.70;76.00
35363;DHT22;21463;47.480;8.214;2023-07-13T00:31:38;21.80;76.00
35363;DHT22;21463;47.480;8.214;2023-07-13T00:32:46;21.70;76.00
35363;DHT22;21463;47.480;8.214;2023-07-13T00:33:54;21.70;76.00
35363;DHT22;21463;47.480;8.214;2023-07-13T00:34:58;21.70;76.00
35363;DHT22;21463;47.480;8.214;2023-07-13T00:36:05;21.70;76.00
35363;DHT22;21463;47.480;8.214;2023-07-13T00:37:09;21.70;76.00
35363;DHT22;21463;47.480;8.214;2023-07-13T00:38:18;21.80;76.00
35363;DHT22;21463;47.480;8.214;2023-07-13T00:39:24;21.70;76.00
35363;DHT22;21463;47.480;8.214;2023-07-13T00:40:42;21.70;76.00
35363;DHT22;21463;47.480;8.214;2023-07-13T00:41:48;21.70;76.00
35363;DHT22;21463;47.480;8.214;2023-07-13T00:42:56;21.70;76.00
35363;DHT22;21463;47.480;8.214;2023-07-13T00:44:02;21.70;76.00
35363;DHT22;21463;47.480;8.214;2023-07-13T00:46:32;21.70;76.00
35363;DHT22;21463;47.480;8.214;2023-07-13T00:47:41;21.70;76.00
35363;DHT22;21463;47.480;8.214;2023-07-13T00:48:46;21.70;76.00
35363;DHT22;21463;47.480;8.214;2023-07-13T00:50:08;21.70;76.00
35363;DHT22;21463;47.480;8.214;2023-07-13T00:51:19;21.70;76.00
35363;DHT22;21463;47.480;8.214;2023-07-13T00:52:26;21.70;76.00
35363;DHT22;21463;47.480;8.214;2023-07-13T00:53:33;21.70;76.00
35363;DHT22;21463;47.480;8.214;2023-07-13T00:54:41;21.70;76.00
35363;DHT22;21463;47.480;8.214;2023-07-13T00:55:52;21.70;76.00
35363;DHT22;21463;47.480;8.214;2023-07-13T00:57:45;21.70;76.00
35363;DHT22;21463;47.480;8.214;2023-07-13T00:58:52;21.70;76.00
35363;DHT22;21463;47.480;8.214;2023-07-13T01:00:11;21.70;76.00
35363;DHT22;21463;47.480;8.214;2023-07-13T01:01:28;21.70;76.00
35363;DHT22;21463;47.480;8.214;2023-07-13T01:02:38;21.70;76.00
35363;DHT22;21463;47.480;8.214;2023-07-13T01:04:01;21.70;76.00
35363;DHT22;21463;47.480;8.214;2023-07-13T01:05:17;21.70;76.00
35363;DHT22;21463;47.480;8.214;2023-07-13T01:06:36;21.70;76.00
35363;DHT22;21463;47.480;8.214;2023-07-13T01:08:13;21.70;76.00
35363;DHT22;21463;47.480;8.214;2023-07-13T01:09:20;21.70;76.00
35363;DHT22;21463;47.480;8.214;2023-07-13T01:10:41;21.70;76.00
35363;DHT22;21463;47.480;8.214;2023-07-13T01:11:47;21.70;76.00
35363;DHT22;21463;47.480;8.214;2023-07-13T01:12:53;21.70;76.00
35363;DHT22;21463;47.480;8.214;2023-07-13T01:14:02;21.70;76.00
35363;DHT22;21463;47.480;8.214;2023-07-13T01:15:39;21.70;76.00
35363;DHT22;21463;47.480;8.214;2023-07-13T01:16:53;21.70;76.00
35363;DHT22;21463;47.480;8.214;2023-07-13T01:18:16;21.70;76.00
35363;DHT22;21463;47.480;8.214;2023-07-13T01:20:37;21.70;76.00
35363;DHT22;21463;47.480;8.214;2023-07-13T01:22:05;21.70;76.00
35363;DHT22;21463;47.480;8.214;2023-07-13T01:23:18;21.70;76.00
35363;DHT22;21463;47.480;8.214;2023-07-13T01:24:26;21.60;75.90
35363;DHT22;21463;47.480;8.214;2023-07-13T01:25:31;21.70;76.00
35363;DHT22;21463;47.480;8.214;2023-07-13T01:26:35;21.70;75.90
35363;DHT22;21463;47.480;8.214;2023-07-13T01:27:43;21.70;76.00
35363;DHT22;21463;47.480;8.214;2023-07-13T01:29:06;21.70;76.00
35363;DHT22;21463;47.480;8.214;2023-07-13T01:30:15;21.70;75.90
35363;DHT22;21463;47.480;8.214;2023-07-13T01:31:24;21.70;76.00
35363;DHT22;21463;47.480;8.214;2023-07-13T01:32:49;21.70;75.90
35363;DHT22;21463;47.480;8.214;2023-07-13T01:33:56;21.70;75.90
35363;DHT22;21463;47.480;8.214;2023-07-13T01:35:01;21.70;75.90
35363;DHT22;21463;47.480;8.214;2023-07-13T01:36:08;21.70;75.90
35363;DHT22;21463;47.480;8.214;2023-07-13T01:37:26;21.60;75.90
35363;DHT22;21463;47.480;8.214;2023-07-13T01:38:39;21.70;75.90
35363;DHT22;21463;47.480;8.214;2023-07-13T01:39:51;21.70;75.90
35363;DHT22;21463;47.480;8.214;2023-07-13T01:40:58;21.70;75.90
35363;DHT22;21463;47.480;8.214;2023-07-13T01:42:02;21.70;75.90
35363;DHT22;21463;47.480;8.214;2023-07-13T01:43:07;21.70;75.90
35363;DHT22;21463;47.480;8.214;2023-07-13T01:44:16;21.60;75.80
35363;DHT22;21463;47.480;8.214;2023-07-13T01:45:23;21.70;75.90
35363;DHT22;21463;47.480;8.214;2023-07-13T01:46:29;21.70;75.90
35363;DHT22;21463;47.480;8.214;2023-07-13T01:47:38;21.70;75.90
35363;DHT22;21463;47.480;8.214;2023-07-13T01:49:00;21.60;75.90
35363;DHT22;21463;47.480;8.214;2023-07-13T01:50:08;21.70;75.90
35363;DHT22;21463;47.480;8.214;2023-07-13T01:51:16;21.70;75.90
35363;DHT22;21463;47.480;8.214;2023-07-13T01:52:45;21.60;75.80
35363;DHT22;21463;47.480;8.214;2023-07-13T01:53:55;21.70;75.90
35363;DHT22;21463;47.480;8.214;2023-07-13T01:55:00;21.60;75.90
35363;DHT22;21463;47.480;8.214;2023-07-13T01:56:14;21.60;75.80
35363;DHT22;21463;47.480;8.214;2023-07-13T01:57:24;21.60;75.80
35363;DHT22;21463;47.480;8.214;2023-07-13T01:58:31;21.70;75.90
35363;DHT22;21463;47.480;8.214;2023-07-13T01:59:35;21.70;75.90
35363;DHT22;21463;47.480;8.214;2023-07-13T02:00:43;21.70;75.90
35363;DHT22;21463;47.480;8.214;2023-07-13T02:01:47;21.60;75.80
35363;DHT22;21463;47.480;8.214;2023-07-13T02:02:52;21.70;75.90
35363;DHT22;21463;47.480;8.214;2023-07-13T02:04:00;21.70;75.90
35363;DHT22;21463;47.480;8.214;2023-07-13T02:05:36;21.70;75.90
35363;DHT22;21463;47.480;8.214;2023-07-13T02:06:42;21.70;75.90
35363;DHT22;21463;47.480;8.214;2023-07-13T02:07:53;21.70;75.90
35363;DHT22;21463;47.480;8.214;2023-07-13T02:09:05;21.70;75.90
35363;DHT22;21463;47.480;8.214;2023-07-13T02:10:17;21.60;75.80
35363;DHT22;21463;47.480;8.214;2023-07-13T02:11:38;21.70;75.90
35363;DHT22;21463;47.480;8.214;2023-07-13T02:12:48;21.70;75.90
35363;DHT22;21463;47.480;8.214;2023-07-13T02:14:12;21.60;75.80
35363;DHT22;21463;47.480;8.214;2023-07-13T02:15:27;21.60;75.80
35363;DHT22;21463;47.480;8.214;2023-07-13T02:16:33;21.70;75.80
35363;DHT22;21463;47.480;8.214;2023-07-13T02:17:47;21.70;75.90
35363;DHT22;21463;47.480;8.214;2023-07-13T02:18:55;21.70;75.80
35363;DHT22;21463;47.480;8.214;2023-07-13T02:20:02;21.70;75.80
35363;DHT22;21463;47.480;8.214;2023-07-13T02:21:09;21.60;75.80
35363;DHT22;21463;47.480;8.214;2023-07-13T02:22:21;21.60;75.80
35363;DHT22;21463;47.480;8.214;2023-07-13T02:23:28;21.70;75.80
35363;DHT22;21463;47.480;8.214;2023-07-13T02:24:37;21.60;75.80
35363;DHT22;21463;47.480;8.214;2023-07-13T02:26:01;21.70;75.80
35363;DHT22;21463;47.480;8.214;2023-07-13T02:27:07;21.70;75.80
35363;DHT22;21463;47.480;8.214;2023-07-13T02:28:21;21.70;75.80
35363;DHT22;21463;47.480;8.214;2023-07-13T02:29:57;21.80;75.90
35363;DHT22;21463;47.480;8.214;2023-07-13T02:31:21;21.60;75.80
35363;DHT22;21463;47.480;8.214;2023-07-13T02:32:34;21.70;75.80
35363;DHT22;21463;47.480;8.214;2023-07-13T02:33:42;21.70;75.80
35363;DHT22;21463;47.480;8.214;2023-07-13T02:34:56;21.60;75.80
35363;DHT22;21463;47.480;8.214;2023-07-13T02:36:02;21.70;75.80
35363;DHT22;21463;47.480;8.214;2023-07-13T02:37:12;21.60;75.80
35363;DHT22;21463;47.480;8.214;2023-07-13T02:38:17;21.60;75.70
35363;DHT22;21463;47.480;8.214;2023-07-13T02:39:23;21.60;75.70
35363;DHT22;21463;47.480;8.214;2023-07-13T02:40:29;21.60;75.70
35363;DHT22;21463;47.480;8.214;2023-07-13T02:41:59;21.60;75.70
35363;DHT22;21463;47.480;8.214;2023-07-13T02:43:04;21.60;75.80
35363;DHT22;21463;47.480;8.214;2023-07-13T02:44:12;21.60;75.70
35363;DHT22;21463;47.480;8.214;2023-07-13T02:45:16;21.70;75.80
35363;DHT22;21463;47.480;8.214;2023-07-13T02:46:41;21.60;75.70
35363;DHT22;21463;47.480;8.214;2023-07-13T02:47:57;21.60;75.70
35363;DHT22;21463;47.480;8.214;2023-07-13T02:49:05;21.70;75.80
35363;DHT22;21463;47.480;8.214;2023-07-13T02:50:23;21.60;75.70
35363;DHT22;21463;47.480;8.214;2023-07-13T02:51:36;21.60;75.70
35363;DHT22;21463;47.480;8.214;2023-07-13T02:52:48;21.60;75.70
35363;DHT22;21463;47.480;8.214;2023-07-13T02:53:55;21.60;75.70
35363;DHT22;21463;47.480;8.214;2023-07-13T02:55:08;21.60;75.70
35363;DHT22;21463;47.480;8.214;2023-07-13T02:56:18;21.60;75.70
35363;DHT22;21463;47.480;8.214;2023-07-13T02:57:26;21.60;75.70
35363;DHT22;21463;47.480;8.214;2023-07-13T02:58:33;21.70;75.80
35363;DHT22;21463;47.480;8.214;2023-07-13T02:59:42;21.60;75.70
35363;DHT22;21463;47.480;8.214;2023-07-13T03:01:07;21.70;75.80
35363;DHT22;21463;47.480;8.214;2023-07-13T03:02:32;21.60;75.70
35363;DHT22;21463;47.480;8.214;2023-07-13T03:03:49;21.60;75.70
35363;DHT22;21463;47.480;8.214;2023-07-13T03:05:03;21.60;75.70
35363;DHT22;21463;47.480;8.214;2023-07-13T03:06:09;21.60;75.70
35363;DHT22;21463;47.480;8.214;2023-07-13T03:07:28;21.60;75.70
35363;DHT22;21463;47.480;8.214;2023-07-13T03:08:39;21.60;75.70
35363;DHT22;21463;47.480;8.214;2023-07-13T03:09:53;21.60;75.70
35363;DHT22;21463;47.480;8.214;2023-07-13T03:11:14;21.60;75.70
35363;DHT22;21463;47.480;8.214;2023-07-13T03:12:24;21.70;75.70
35363;DHT22;21463;47.480;8.214;2023-07-13T03:13:29;21.60;75.60
35363;DHT22;21463;47.480;8.214;2023-07-13T03:14:57;21.60;75.70
35363;DHT22;21463;47.480;8.214;2023-07-13T03:16:06;21.60;75.60
35363;DHT22;21463;47.480;8.214;2023-07-13T03:17:11;21.60;75.60
35363;DHT22;21463;47.480;8.214;2023-07-13T03:18:18;21.60;75.70
35363;DHT22;21463;47.480;8.214;2023-07-13T03:19:25;21.60;75.60
35363;DHT22;21463;47.480;8.214;2023-07-13T03:20:37;21.60;75.70
35363;DHT22;21463;47.480;8.214;2023-07-13T03:21:45;21.60;75.60
35363;DHT22;21463;47.480;8.214;2023-07-13T03:22:58;21.60;75.60
35363;DHT22;21463;47.480;8.214;2023-07-13T03:24:08;21.60;75.60
35363;DHT22;21463;47.480;8.214;2023-07-13T03:25:14;21.60;75.70
35363;DHT22;21463;47.480;8.214;2023-07-13T03:26:24;21.60;75.60
35363;DHT22;21463;47.480;8.214;2023-07-13T03:27:29;21.60;75.60
35363;DHT22;21463;47.480;8.214;2023-07-13T03:28:35;21.60;75.60
35363;DHT22;21463;47.480;8.214;2023-07-13T03:30:17;21.60;75.60
35363;DHT22;21463;47.480;8.214;2023-07-13T03:31:28;21.60;75.60
35363;DHT22;21463;47.480;8.214;2023-07-13T03:32:46;21.60;75.60
35363;DHT22;21463;47.480;8.214;2023-07-13T03:33:54;21.60;75.60
35363;DHT22;21463;47.480;8.214;2023-07-13T03:35:01;21.60;75.60
35363;DHT22;21463;47.480;8.214;2023-07-13T03:36:14;21.60;75.60
35363;DHT22;21463;47.480;8.214;2023-07-13T03:37:44;21.60;75.60
35363;DHT22;21463;47.480;8.214;2023-07-13T03:38:55;21.70;75.70
35363;DHT22;21463;47.480;8.214;2023-07-13T03:40:29;21.70;75.70
35363;DHT22;21463;47.480;8.214;2023-07-13T03:41:52;21.50;75.60
35363;DHT22;21463;47.480;8.214;2023-07-13T03:42:56;21.60;75.60
35363;DHT22;21463;47.480;8.214;2023-07-13T03:44:09;21.60;75.60
35363;DHT22;21463;47.480;8.214;2023-07-13T03:45:14;21.60;75.60
35363;DHT22;21463;47.480;8.214;2023-07-13T03:46:23;21.60;75.60
35363;DHT22;21463;47.480;8.214;2023-07-13T03:47:30;21.60;75.60
35363;DHT22;21463;47.480;8.214;2023-07-13T03:48:35;21.60;75.60
35363;DHT22;21463;47.480;8.214;2023-07-13T03:49:41;21.60;75.60
35363;DHT22;21463;47.480;8.214;2023-07-13T03:50:51;21.60;75.50
35363;DHT22;21463;47.480;8.214;2023-07-13T03:51:56;21.60;75.60
35363;DHT22;21463;47.480;8.214;2023-07-13T03:53:01;21.60;75.50
35363;DHT22;21463;47.480;8.214;2023-07-13T03:54:12;21.60;75.50
35363;DHT22;21463;47.480;8.214;2023-07-13T03:55:21;21.60;75.50
35363;DHT22;21463;47.480;8.214;2023-07-13T03:56:26;21.60;75.50
35363;DHT22;21463;47.480;8.214;2023-07-13T03:57:37;21.60;75.50
35363;DHT22;21463;47.480;8.214;2023-07-13T03:58:44;21.60;75.50
35363;DHT22;21463;47.480;8.214;2023-07-13T04:00:15;21.60;75.50
35363;DHT22;21463;47.480;8.214;2023-07-13T04:01:23;21.60;75.50
35363;DHT22;21463;47.480;8.214;2023-07-13T04:02:53;21.50;75.40
35363;DHT22;21463;47.480;8.214;2023-07-13T04:04:00;21.60;75.50
35363;DHT22;21463;47.480;8.214;2023-07-13T04:05:18;21.60;75.40
35363;DHT22;21463;47.480;8.214;2023-07-13T04:06:28;21.60;75.50
35363;DHT22;21463;47.480;8.214;2023-07-13T04:07:33;21.60;75.40
35363;DHT22;21463;47.480;8.214;2023-07-13T04:08:55;21.60;75.40
35363;DHT22;21463;47.480;8.214;2023-07-13T04:10:04;21.60;75.40
35363;DHT22;21463;47.480;8.214;2023-07-13T04:11:10;21.60;75.40
35363;DHT22;21463;47.480;8.214;2023-07-13T04:12:16;21.50;75.40
35363;DHT22;21463;47.480;8.214;2023-07-13T04:13:24;21.70;75.50
35363;DHT22;21463;47.480;8.214;2023-07-13T04:14:33;21.60;75.40
35363;DHT22;21463;47.480;8.214;2023-07-13T04:15:42;21.60;75.40
35363;DHT22;21463;47.480;8.214;2023-07-13T04:17:13;21.60;75.40
35363;DHT22;21463;47.480;8.214;2023-07-13T04:18:20;21.60;75.30
35363;DHT22;21463;47.480;8.214;2023-07-13T04:19:50;21.60;75.40
35363;DHT22;21463;47.480;8.214;2023-07-13T04:20:56;21.60;75.30
35363;DHT22;21463;47.480;8.214;2023-07-13T04:22:08;21.60;75.40
35363;DHT22;21463;47.480;8.214;2023-07-13T04:23:12;21.50;75.30
35363;DHT22;21463;47.480;8.214;2023-07-13T04:24:15;21.60;75.30
35363;DHT22;21463;47.480;8.214;2023-07-13T04:25:26;21.60;75.30
35363;DHT22;21463;47.480;8.214;2023-07-13T04:26:35;21.60;75.30
35363;DHT22;21463;47.480;8.214;2023-07-13T04:27:40;21.60;75.30
35363;DHT22;21463;47.480;8.214;2023-07-13T04:28:44;21.60;75.30
35363;DHT22;21463;47.480;8.214;2023-07-13T04:30:11;21.60;75.30
35363;DHT22;21463;47.480;8.214;2023-07-13T04:31:18;21.70;75.30
35363;DHT22;21463;47.480;8.214;2023-07-13T04:32:42;21.60;75.30
35363;DHT22;21463;47.480;8.214;2023-07-13T04:33:45;21.60;75.30
35363;DHT22;21463;47.480;8.214;2023-07-13T04:34:50;21.60;75.20
35363;DHT22;21463;47.480;8.214;2023-07-13T04:35:59;21.60;75.30
35363;DHT22;21463;47.480;8.214;2023-07-13T04:37:05;21.60;75.20
35363;DHT22;21463;47.480;8.214;2023-07-13T04:38:15;21.60;75.20
35363;DHT22;21463;47.480;8.214;2023-07-13T04:39:22;21.60;75.20
35363;DHT22;21463;47.480;8.214;2023-07-13T04:40:26;21.60;75.20
35363;DHT22;21463;47.480;8.214;2023-07-13T04:41:50;21.60;75.20
35363;DHT22;21463;47.480;8.214;2023-07-13T04:42:56;21.60;75.20
35363;DHT22;21463;47.480;8.214;2023-07-13T04:44:01;21.60;75.20
35363;DHT22;21463;47.480;8.214;2023-07-13T04:45:11;21.60;75.10
35363;DHT22;21463;47.480;8.214;2023-07-13T04:46:18;21.60;75.20
35363;DHT22;21463;47.480;8.214;2023-07-13T04:47:31;21.60;75.10
35363;DHT22;21463;47.480;8.214;2023-07-13T04:48:42;21.60;75.10
35363;DHT22;21463;47.480;8.214;2023-07-13T04:49:49;21.50;75.10
35363;DHT22;21463;47.480;8.214;2023-07-13T04:51:01;21.60;75.10
35363;DHT22;21463;47.480;8.214;2023-07-13T04:52:08;21.60;75.10
35363;DHT22;21463;47.480;8.214;2023-07-13T04:53:16;21.50;75.00
35363;DHT22;21463;47.480;8.214;2023-07-13T04:54:41;21.60;75.10
35363;DHT22;21463;47.480;8.214;2023-07-13T04:55:55;21.60;75.10
35363;DHT22;21463;47.480;8.214;2023-07-13T04:57:02;21.60;75.00
35363;DHT22;21463;47.480;8.214;2023-07-13T04:58:24;21.60;75.00
35363;DHT22;21463;47.480;8.214;2023-07-13T04:59:29;21.60;75.00
35363;DHT22;21463;47.480;8.214;2023-07-13T05:00:37;21.50;75.00
35363;DHT22;21463;47.480;8.214;2023-07-13T05:01:43;21.60;75.00
35363;DHT22;21463;47.480;8.214;2023-07-13T05:02:50;21.60;75.00
35363;DHT22;21463;47.480;8.214;2023-07-13T05:04:01;21.60;75.00
35363;DHT22;21463;47.480;8.214;2023-07-13T05:05:12;21.60;75.00
35363;DHT22;21463;47.480;8.214;2023-07-13T05:06:19;21.60;75.00
35363;DHT22;21463;47.480;8.214;2023-07-13T05:07:25;21.60;74.90
35363;DHT22;21463;47.480;8.214;2023-07-13T05:08:29;21.60;74.90
35363;DHT22;21463;47.480;8.214;2023-07-13T05:09:35;21.60;74.90
35363;DHT22;21463;47.480;8.214;2023-07-13T05:10:46;21.60;74.90
35363;DHT22;21463;47.480;8.214;2023-07-13T05:11:53;21.50;74.90
35363;DHT22;21463;47.480;8.214;2023-07-13T05:12:58;21.60;74.90
35363;DHT22;21463;47.480;8.214;2023-07-13T05:14:08;21.50;74.80
35363;DHT22;21463;47.480;8.214;2023-07-13T05:15:13;21.60;74.90
35363;DHT22;21463;47.480;8.214;2023-07-13T05:16:27;21.60;74.90
35363;DHT22;21463;47.480;8.214;2023-07-13T05:17:52;21.50;74.80
35363;DHT22;21463;47.480;8.214;2023-07-13T05:19:03;21.50;74.80
35363;DHT22;21463;47.480;8.214;2023-07-13T05:20:11;21.60;74.90
35363;DHT22;21463;47.480;8.214;2023-07-13T05:21:35;21.50;74.80
35363;DHT22;21463;47.480;8.214;2023-07-13T05:22:40;21.60;74.80
35363;DHT22;21463;47.480;8.214;2023-07-13T05:23:49;21.60;74.80
35363;DHT22;21463;47.480;8.214;2023-07-13T05:25:01;21.60;74.80
35363;DHT22;21463;47.480;8.214;2023-07-13T05:26:12;21.60;74.80
35363;DHT22;21463;47.480;8.214;2023-07-13T05:27:18;21.60;74.80
35363;DHT22;21463;47.480;8.214;2023-07-13T05:28:22;21.50;74.70
35363;DHT22;21463;47.480;8.214;2023-07-13T05:29:37;21.60;74.80
35363;DHT22;21463;47.480;8.214;2023-07-13T05:30:46;21.60;74.70
35363;DHT22;21463;47.480;8.214;2023-07-13T05:31:54;21.50;74.70
35363;DHT22;21463;47.480;8.214;2023-07-13T05:33:01;21.50;74.70
35363;DHT22;21463;47.480;8.214;2023-07-13T05:34:04;21.60;74.70
35363;DHT22;21463;47.480;8.214;2023-07-13T05:35:11;21.50;74.60
35363;DHT22;21463;47.480;8.214;2023-07-13T05:36:23;21.60;74.70
35363;DHT22;21463;47.480;8.214;2023-07-13T05:37:28;21.60;74.70
35363;DHT22;21463;47.480;8.214;2023-07-13T05:38:46;21.60;74.70
35363;DHT22;21463;47.480;8.214;2023-07-13T05:39:51;21.50;74.60
35363;DHT22;21463;47.480;8.214;2023-07-13T05:41:00;21.50;74.60
35363;DHT22;21463;47.480;8.214;2023-07-13T05:42:09;21.50;74.60
35363;DHT22;21463;47.480;8.214;2023-07-13T05:43:15;21.50;74.50
35363;DHT22;21463;47.480;8.214;2023-07-13T05:44:21;21.60;74.60
35363;DHT22;21463;47.480;8.214;2023-07-13T05:45:40;21.50;74.50
35363;DHT22;21463;47.480;8.214;2023-07-13T05:46:45;21.50;74.50
35363;DHT22;21463;47.480;8.214;2023-07-13T05:47:55;21.60;74.50
35363;DHT22;21463;47.480;8.214;2023-07-13T05:48:59;21.60;74.50
35363;DHT22;21463;47.480;8.214;2023-07-13T05:50:03;21.50;74.50
35363;DHT22;21463;47.480;8.214;2023-07-13T05:51:08;21.60;74.50
35363;DHT22;21463;47.480;8.214;2023-07-13T05:52:20;21.60;74.50
35363;DHT22;21463;47.480;8.214;2023-07-13T05:53:31;21.50;74.50
35363;DHT22;21463;47.480;8.214;2023-07-13T05:54:47;21.60;74.50
35363;DHT22;21463;47.480;8.214;2023-07-13T05:55:57;21.50;74.40
35363;DHT22;21463;47.480;8.214;2023-07-13T05:57:08;21.50;74.40
35363;DHT22;21463;47.480;8.214;2023-07-13T05:58:19;21.50;74.40
35363;DHT22;21463;47.480;8.214;2023-07-13T05:59:28;21.60;74.40
35363;DHT22;21463;47.480;8.214;2023-07-13T06:00:33;21.60;74.40
35363;DHT22;21463;47.480;8.214;2023-07-13T06:01:37;21.50;74.40
35363;DHT22;21463;47.480;8.214;2023-07-13T06:02:44;21.50;74.30
35363;DHT22;21463;47.480;8.214;2023-07-13T06:03:48;21.50;74.30
35363;DHT22;21463;47.480;8.214;2023-07-13T06:05:04;21.60;74.40
35363;DHT22;21463;47.480;8.214;2023-07-13T06:06:08;21.50;74.30
35363;DHT22;21463;47.480;8.214;2023-07-13T06:07:26;21.50;74.30
35363;DHT22;21463;47.480;8.214;2023-07-13T06:08:33;21.50;74.30
35363;DHT22;21463;47.480;8.214;2023-07-13T06:09:40;21.60;74.40
35363;DHT22;21463;47.480;8.214;2023-07-13T06:10:50;21.50;74.20
35363;DHT22;21463;47.480;8.214;2023-07-13T06:11:52;21.60;74.30
35363;DHT22;21463;47.480;8.214;2023-07-13T06:12:59;21.60;74.30
35363;DHT22;21463;47.480;8.214;2023-07-13T06:14:04;21.50;74.20
35363;DHT22;21463;47.480;8.214;2023-07-13T06:15:09;21.50;74.10
35363;DHT22;21463;47.480;8.214;2023-07-13T06:16:15;21.50;74.10
35363;DHT22;21463;47.480;8.214;2023-07-13T06:17:22;21.60;74.20
35363;DHT22;21463;47.480;8.214;2023-07-13T06:18:26;21.50;74.00
35363;DHT22;21463;47.480;8.214;2023-07-13T06:19:32;21.50;74.00
35363;DHT22;21463;47.480;8.214;2023-07-13T06:20:39;21.60;74.10
35363;DHT22;21463;47.480;8.214;2023-07-13T06:21:44;21.60;74.00
35363;DHT22;21463;47.480;8.214;2023-07-13T06:22:54;21.50;74.00
35363;DHT22;21463;47.480;8.214;2023-07-13T06:24:00;21.60;74.10
35363;DHT22;21463;47.480;8.214;2023-07-13T06:25:03;21.60;74.10
35363;DHT22;21463;47.480;8.214;2023-07-13T06:26:07;21.50;74.00
35363;DHT22;21463;47.480;8.214;2023-07-13T06:27:14;21.60;74.10
35363;DHT22;21463;47.480;8.214;2023-07-13T06:28:16;21.60;74.10
35363;DHT22;21463;47.480;8.214;2023-07-13T06:29:18;21.60;74.10
35363;DHT22;21463;47.480;8.214;2023-07-13T06:30:22;21.90;74.20
35363;DHT22;21463;47.480;8.214;2023-07-13T06:31:28;21.60;74.10
35363;DHT22;21463;47.480;8.214;2023-07-13T06:32:32;21.60;74.10
35363;DHT22;21463;47.480;8.214;2023-07-13T06:33:52;21.60;74.10
35363;DHT22;21463;47.480;8.214;2023-07-13T06:34:54;21.60;74.00
35363;DHT22;21463;47.480;8.214;2023-07-13T06:36:04;21.60;74.00
35363;DHT22;21463;47.480;8.214;2023-07-13T06:37:12;21.60;74.00
35363;DHT22;21463;47.480;8.214;2023-07-13T06:38:18;21.60;74.00
35363;DHT22;21463;47.480;8.214;2023-07-13T06:39:22;21.50;73.90
35363;DHT22;21463;47.480;8.214;2023-07-13T06:40:27;21.60;74.00
35363;DHT22;21463;47.480;8.214;2023-07-13T06:41:31;21.60;74.00
35363;DHT22;21463;47.480;8.214;2023-07-13T06:42:38;21.60;74.00
35363;DHT22;21463;47.480;8.214;2023-07-13T06:43:42;21.60;74.00
35363;DHT22;21463;47.480;8.214;2023-07-13T06:44:47;21.60;74.00
35363;DHT22;21463;47.480;8.214;2023-07-13T06:46:06;21.60;73.90
35363;DHT22;21463;47.480;8.214;2023-07-13T06:47:10;21.60;73.90
35363;DHT22;21463;47.480;8.214;2023-07-13T06:48:13;21.60;73.90
35363;DHT22;21463;47.480;8.214;2023-07-13T06:49:19;21.70;73.90
35363;DHT22;21463;47.480;8.214;2023-07-13T06:50:23;21.70;73.90
35363;DHT22;21463;47.480;8.214;2023-07-13T06:51:42;21.70;73.90
35363;DHT22;21463;47.480;8.214;2023-07-13T06:52:48;21.70;73.90
35363;DHT22;21463;47.480;8.214;2023-07-13T06:53:52;21.70;73.80
35363;DHT22;21463;47.480;8.214;2023-07-13T06:54:55;21.80;73.90
35363;DHT22;21463;47.480;8.214;2023-07-13T06:56:02;21.70;73.80
35363;DHT22;21463;47.480;8.214;2023-07-13T06:57:20;21.70;73.80
35363;DHT22;21463;47.480;8.214;2023-07-13T06:58:22;21.70;73.80
35363;DHT22;21463;47.480;8.214;2023-07-13T06:59:28;21.70;73.70
35363;DHT22;21463;47.480;8.214;2023-07-13T07:00:33;21.70;73.70
35363;DHT22;21463;47.480;8.214;2023-07-13T07:01:36;21.70;73.70
35363;DHT22;21463;47.480;8.214;2023-07-13T07:02:44;21.80;73.80
35363;DHT22;21463;47.480;8.214;2023-07-13T07:03:52;21.80;73.70
35363;DHT22;21463;47.480;8.214;2023-07-13T07:05:06;21.80;73.70
35363;DHT22;21463;47.480;8.214;2023-07-13T07:06:13;21.80;73.70
35363;DHT22;21463;47.480;8.214;2023-07-13T07:07:18;21.70;73.60
35363;DHT22;21463;47.480;8.214;2023-07-13T07:08:21;21.80;73.70
35363;DHT22;21463;47.480;8.214;2023-07-13T07:09:25;21.80;73.60
35363;DHT22;21463;47.480;8.214;2023-07-13T07:10:32;21.80;73.60
35363;DHT22;21463;47.480;8.214;2023-07-13T07:11:52;21.70;73.50
35363;DHT22;21463;47.480;8.214;2023-07-13T07:13:05;21.80;73.60
35363;DHT22;21463;47.480;8.214;2023-07-13T07:14:09;21.80;73.50
35363;DHT22;21463;47.480;8.214;2023-07-13T07:15:17;21.80;73.50
35363;DHT22;21463;47.480;8.214;2023-07-13T07:16:20;21.80;73.50
35363;DHT22;21463;47.480;8.214;2023-07-13T07:17:24;21.90;73.50
35363;DHT22;21463;47.480;8.214;2023-07-13T07:18:31;21.80;73.40
35363;DHT22;21463;47.480;8.214;2023-07-13T07:19:35;21.80;73.40
35363;DHT22;21463;47.480;8.214;2023-07-13T07:20:43;21.80;73.40
35363;DHT22;21463;47.480;8.214;2023-07-13T07:21:47;21.80;73.40
35363;DHT22;21463;47.480;8.214;2023-07-13T07:22:49;21.80;73.30
35363;DHT22;21463;47.480;8.214;2023-07-13T07:23:52;21.80;73.30
35363;DHT22;21463;47.480;8.214;2023-07-13T07:24:55;21.80;73.30
35363;DHT22;21463;47.480;8.214;2023-07-13T07:25:57;21.80;73.30
35363;DHT22;21463;47.480;8.214;2023-07-13T07:27:00;21.80;73.20